sensor_id;sensor_type;location;lat;lon;timestamp;P1;durP1;ratioP1;P2;durP2;ratioP2
42802;SDS011;28447;48.682;9.022;2023-06-22T04:00:40;18.27;;;11.77;;
42802;SDS011;28447;48.682;9.022;2023-06-22T04:03:05;20.87;;;11.00;;
42802;SDS011;28447;48.682;9.022;2023-06-22T04:05:32;14.80;;;11.50;;
42802;SDS011;28447;48.682;9.022;2023-06-22T04:07:58;16.50;;;13.00;;
42802;SDS011;28447;48.682;9.022;2023-06-22T04:10:23;12.63;;;11.07;;
42802;SDS011;28447;48.682;9.022;2023-06-22T04:12:49;14.87;;;10.90;;
42802;SDS011;28447;48.682;9.022;2023-06-22T04:15:14;15.63;;;11.50;;
42802;SDS011;28447;48.682;9.022;2023-06-22T04:17:40;17.80;;;12.87;;
42802;SDS011;28447;48.682;9.022;2023-06-22T04:20:06;17.70;;;11.83;;
42802;SDS011;28447;48.682;9.022;2023-06-22T04:22:32;16.63;;;12.73;;
42802;SDS011;28447;48.682;9.022;2023-06-22T04:24:58;17.60;;;12.53;;
42802;SDS011;28447;48.682;9.022;2023-06-22T04:27:23;16.77;;;12.17;;
42802;SDS011;28447;48.682;9.022;2023-06-22T04:29:49;14.77;;;12.00;;
42802;SDS011;28447;48.682;9.022;2023-06-22T04:32:16;17.27;;;13.40;;
42802;SDS011;28447;48.682;9.022;2023-06-22T04:34:42;16.50;;;12.10;;
42802;SDS011;28447;48.682;9.022;2023-06-22T04:37:08;13.90;;;11.20;;
42802;SDS011;28447;48.682;9.022;2023-06-22T04:39:34;22.70;;;12.10;;
42802;SDS011;28447;48.682;9.022;2023-06-22T04:41:59;15.60;;;10.90;;
42802;SDS011;28447;48.682;9.022;2023-06-22T04:44:25;19.93;;;11.23;;
42802;SDS011;28447;48.682;9.022;2023-06-22T04:49:33;13.30;;;9.57;;
42802;SDS011;28447;48.682;9.022;2023-06-22T04:52:09;18.20;;;10.47;;
42802;SDS011;28447;48.682;9.022;2023-06-22T04:54:37;19.63;;;9.47;;
42802;SDS011;28447;48.682;9.022;2023-06-22T04:57:04;16.00;;;10.80;;
42802;SDS011;28447;48.682;9.022;2023-06-22T04:59:34;17.93;;;11.23;;
42802;SDS011;28447;48.682;9.022;2023-06-22T05:02:01;13.83;;;10.17;;
42802;SDS011;28447;48.682;9.022;2023-06-22T05:04:28;13.37;;;9.30;;
42802;SDS011;28447;48.682;9.022;2023-06-22T05:06:58;13.93;;;11.00;;
42802;SDS011;28447;48.682;9.022;2023-06-22T05:09:25;14.50;;;9.40;;
42802;SDS011;28447;48.682;9.022;2023-06-22T05:11:50;13.13;;;10.13;;
42802;SDS011;28447;48.682;9.022;2023-06-22T05:14:16;12.73;;;9.70;;
42802;SDS011;28447;48.682;9.022;2023-06-22T05:16:43;14.27;;;10.23;;
42802;SDS011;28447;48.682;9.022;2023-06-22T05:19:09;11.80;;;9.90;;
42802;SDS011;28447;48.682;9.022;2023-06-22T05:21:35;14.53;;;9.00;;
42802;SDS011;28447;48.682;9.022;2023-06-22T05:24:01;12.50;;;9.03;;
42802;SDS011;28447;48.682;9.022;2023-06-22T05:26:31;14.73;;;8.57;;
42802;SDS011;28447;48.682;9.022;2023-06-22T05:28:57;11.70;;;8.97;;
42802;SDS011;28447;48.682;9.022;2023-06-22T05:31:24;9.80;;;8.03;;
42802;SDS011;28447;48.682;9.022;2023-06-22T05:33:50;10.60;;;8.20;;
42802;SDS011;28447;48.682;9.022;2023-06-22T05:36:17;12.37;;;7.63;;
42802;SDS011;28447;48.682;9.022;2023-06-22T05:38:44;9.73;;;7.80;;
42802;SDS011;28447;48.682;9.022;2023-06-22T05:41:10;11.53;;;8.40;;
42802;SDS011;28447;48.682;9.022;2023-06-22T05:43:36;11.30;;;8.40;;
42802;SDS011;28447;48.682;9.022;2023-06-22T05:46:02;13.37;;;7.90;;
42802;SDS011;28447;48.682;9.022;2023-06-22T05:48:28;9.37;;;7.10;;
42802;SDS011;28447;48.682;9.022;2023-06-22T05:50:54;9.17;;;7.83;;
42802;SDS011;28447;48.682;9.022;2023-06-22T05:53:20;16.77;;;8.13;;
42802;SDS011;28447;48.682;9.022;2023-06-22T05:55:46;12.40;;;7.13;;
42802;SDS011;28447;48.682;9.022;2023-06-22T05:58:11;10.03;;;8.10;;
42802;SDS011;28447;48.682;9.022;2023-06-22T06:00:38;11.97;;;7.13;;
42802;SDS011;28447;48.682;9.022;2023-06-22T06:03:04;9.40;;;7.50;;
42802;SDS011;28447;48.682;9.022;2023-06-22T06:05:31;11.13;;;8.10;;
42802;SDS011;28447;48.682;9.022;2023-06-22T06:07:58;10.20;;;7.77;;
42802;SDS011;28447;48.682;9.022;2023-06-22T06:10:24;12.00;;;8.03;;
42802;SDS011;28447;48.682;9.022;2023-06-22T06:12:50;10.23;;;7.77;;
42802;SDS011;28447;48.682;9.022;2023-06-22T06:15:16;8.70;;;6.97;;
42802;SDS011;28447;48.682;9.022;2023-06-22T06:17:51;11.23;;;7.20;;
42802;SDS011;28447;48.682;9.022;2023-06-22T06:20:18;9.77;;;6.83;;
42802;SDS011;28447;48.682;9.022;2023-06-22T06:22:45;8.17;;;6.57;;
42802;SDS011;28447;48.682;9.022;2023-06-22T06:25:11;8.40;;;6.57;;
42802;SDS011;28447;48.682;9.022;2023-06-22T06:27:41;11.43;;;6.73;;
42802;SDS011;28447;48.682;9.022;2023-06-22T06:30:08;9.83;;;7.20;;
42802;SDS011;28447;48.682;9.022;2023-06-22T06:32:35;11.93;;;7.77;;
42802;SDS011;28447;48.682;9.022;2023-06-22T06:35:01;10.77;;;7.27;;
42802;SDS011;28447;48.682;9.022;2023-06-22T06:37:26;15.10;;;8.03;;
42802;SDS011;28447;48.682;9.022;2023-06-22T06:39:52;10.10;;;7.40;;
42802;SDS011;28447;48.682;9.022;2023-06-22T06:42:18;10.87;;;6.87;;
42802;SDS011;28447;48.682;9.022;2023-06-22T06:44:44;8.43;;;6.33;;
42802;SDS011;28447;48.682;9.022;2023-06-22T06:47:10;8.30;;;6.60;;
42802;SDS011;28447;48.682;9.022;2023-06-22T06:49:36;9.80;;;6.90;;
42802;SDS011;28447;48.682;9.022;2023-06-22T06:52:02;8.23;;;6.63;;
42802;SDS011;28447;48.682;9.022;2023-06-22T06:54:27;7.27;;;6.47;;
42802;SDS011;28447;48.682;9.022;2023-06-22T06:56:53;8.00;;;6.67;;
42802;SDS011;28447;48.682;9.022;2023-06-22T06:59:19;10.60;;;6.47;;
42802;SDS011;28447;48.682;9.022;2023-06-22T07:01:44;8.20;;;5.73;;
42802;SDS011;28447;48.682;9.022;2023-06-22T07:04:10;7.87;;;5.83;;
42802;SDS011;28447;48.682;9.022;2023-06-22T07:06:36;8.33;;;6.20;;
42802;SDS011;28447;48.682;9.022;2023-06-22T07:09:02;8.70;;;7.10;;
42802;SDS011;28447;48.682;9.022;2023-06-22T07:11:28;8.40;;;5.93;;
42802;SDS011;28447;48.682;9.022;2023-06-22T07:13:54;7.88;;;6.00;;
42802;SDS011;28447;48.682;9.022;2023-06-22T07:16:19;9.20;;;5.68;;
42802;SDS011;28447;48.682;9.022;2023-06-22T07:18:45;11.97;;;5.67;;
42802;SDS011;28447;48.682;9.022;2023-06-22T07:21:10;9.10;;;6.53;;
42802;SDS011;28447;48.682;9.022;2023-06-22T07:23:36;16.15;;;6.53;;
42802;SDS011;28447;48.682;9.022;2023-06-22T07:26:02;11.10;;;6.60;;
42802;SDS011;28447;48.682;9.022;2023-06-22T07:28:28;11.88;;;6.75;;
42802;SDS011;28447;48.682;9.022;2023-06-22T07:30:56;9.32;;;6.18;;
42802;SDS011;28447;48.682;9.022;2023-06-22T07:33:22;11.23;;;6.15;;
42802;SDS011;28447;48.682;9.022;2023-06-22T07:35:47;9.10;;;5.47;;
42802;SDS011;28447;48.682;9.022;2023-06-22T07:38:13;9.20;;;5.93;;
42802;SDS011;28447;48.682;9.022;2023-06-22T07:40:40;12.45;;;6.30;;
42802;SDS011;28447;48.682;9.022;2023-06-22T07:43:06;10.82;;;6.22;;
42802;SDS011;28447;48.682;9.022;2023-06-22T07:45:32;10.07;;;6.45;;
42802;SDS011;28447;48.682;9.022;2023-06-22T07:48:00;6.45;;;5.57;;
42802;SDS011;28447;48.682;9.022;2023-06-22T07:50:26;11.55;;;5.72;;
42802;SDS011;28447;48.682;9.022;2023-06-22T07:52:51;6.32;;;5.57;;
42802;SDS011;28447;48.682;9.022;2023-06-22T07:55:17;9.45;;;5.90;;
42802;SDS011;28447;48.682;9.022;2023-06-22T07:57:43;14.25;;;6.15;;
42802;SDS011;28447;48.682;9.022;2023-06-22T08:00:09;9.10;;;6.07;;
42802;SDS011;28447;48.682;9.022;2023-06-22T08:02:40;13.23;;;6.38;;
42802;SDS011;28447;48.682;9.022;2023-06-22T08:05:07;7.93;;;5.93;;
42802;SDS011;28447;48.682;9.022;2023-06-22T08:07:37;9.20;;;5.70;;
42802;SDS011;28447;48.682;9.022;2023-06-22T08:10:04;7.68;;;6.32;;
42802;SDS011;28447;48.682;9.022;2023-06-22T08:12:30;9.48;;;6.03;;
42802;SDS011;28447;48.682;9.022;2023-06-22T08:14:56;13.25;;;6.60;;
42802;SDS011;28447;48.682;9.022;2023-06-22T08:17:22;11.90;;;6.75;;
42802;SDS011;28447;48.682;9.022;2023-06-22T08:19:51;10.15;;;6.60;;
42802;SDS011;28447;48.682;9.022;2023-06-22T08:22:16;15.13;;;6.53;;
42802;SDS011;28447;48.682;9.022;2023-06-22T08:24:43;14.65;;;6.47;;
42802;SDS011;28447;48.682;9.022;2023-06-22T08:27:09;10.00;;;7.32;;
42802;SDS011;28447;48.682;9.022;2023-06-22T08:29:36;10.68;;;7.25;;
42802;SDS011;28447;48.682;9.022;2023-06-22T08:32:02;13.45;;;7.28;;
42802;SDS011;28447;48.682;9.022;2023-06-22T08:34:28;10.57;;;6.85;;
42802;SDS011;28447;48.682;9.022;2023-06-22T08:36:54;8.93;;;6.68;;
42802;SDS011;28447;48.682;9.022;2023-06-22T08:39:19;8.05;;;7.20;;
42802;SDS011;28447;48.682;9.022;2023-06-22T08:41:46;11.27;;;6.82;;
42802;SDS011;28447;48.682;9.022;2023-06-22T08:44:12;10.23;;;7.15;;
42802;SDS011;28447;48.682;9.022;2023-06-22T08:46:38;8.95;;;6.93;;
42802;SDS011;28447;48.682;9.022;2023-06-22T08:49:05;15.85;;;7.68;;
42802;SDS011;28447;48.682;9.022;2023-06-22T08:51:31;10.63;;;6.40;;
42802;SDS011;28447;48.682;9.022;2023-06-22T08:53:57;8.77;;;7.22;;
42802;SDS011;28447;48.682;9.022;2023-06-22T08:56:23;8.70;;;6.13;;
42802;SDS011;28447;48.682;9.022;2023-06-22T08:58:48;13.77;;;7.75;;
42802;SDS011;28447;48.682;9.022;2023-06-22T09:01:14;11.43;;;7.07;;
42802;SDS011;28447;48.682;9.022;2023-06-22T09:03:42;9.07;;;7.07;;
42802;SDS011;28447;48.682;9.022;2023-06-22T09:06:08;11.27;;;7.30;;
42802;SDS011;28447;48.682;9.022;2023-06-22T09:08:38;11.43;;;7.90;;
42802;SDS011;28447;48.682;9.022;2023-06-22T09:11:04;9.98;;;6.93;;
42802;SDS011;28447;48.682;9.022;2023-06-22T09:13:30;10.70;;;6.80;;
42802;SDS011;28447;48.682;9.022;2023-06-22T09:15:56;11.27;;;7.22;;
42802;SDS011;28447;48.682;9.022;2023-06-22T09:18:22;11.63;;;6.95;;
42802;SDS011;28447;48.682;9.022;2023-06-22T09:20:48;12.02;;;6.70;;
42802;SDS011;28447;48.682;9.022;2023-06-22T09:23:14;7.53;;;6.65;;
42802;SDS011;28447;48.682;9.022;2023-06-22T09:25:40;8.63;;;7.47;;
42802;SDS011;28447;48.682;9.022;2023-06-22T09:28:06;11.38;;;7.20;;
42802;SDS011;28447;48.682;9.022;2023-06-22T09:30:31;12.80;;;7.43;;
42802;SDS011;28447;48.682;9.022;2023-06-22T09:32:57;12.93;;;7.43;;
42802;SDS011;28447;48.682;9.022;2023-06-22T09:35:22;12.35;;;7.15;;
42802;SDS011;28447;48.682;9.022;2023-06-22T09:37:48;10.20;;;8.25;;
42802;SDS011;28447;48.682;9.022;2023-06-22T09:40:14;14.65;;;7.18;;
42802;SDS011;28447;48.682;9.022;2023-06-22T09:42:41;12.70;;;7.63;;
42802;SDS011;28447;48.682;9.022;2023-06-22T09:45:08;11.07;;;7.03;;
42802;SDS011;28447;48.682;9.022;2023-06-22T09:47:34;9.65;;;7.35;;
42802;SDS011;28447;48.682;9.022;2023-06-22T09:49:59;16.75;;;7.10;;
42802;SDS011;28447;48.682;9.022;2023-06-22T09:52:25;10.40;;;6.32;;
42802;SDS011;28447;48.682;9.022;2023-06-22T09:54:51;10.88;;;7.60;;
42802;SDS011;28447;48.682;9.022;2023-06-22T09:57:16;9.25;;;7.32;;
42802;SDS011;28447;48.682;9.022;2023-06-22T09:59:42;12.55;;;7.57;;
42802;SDS011;28447;48.682;9.022;2023-06-22T10:02:08;8.07;;;6.57;;
42802;SDS011;28447;48.682;9.022;2023-06-22T10:04:34;9.93;;;7.32;;
42802;SDS011;28447;48.682;9.022;2023-06-22T10:07:00;11.77;;;7.57;;
42802;SDS011;28447;48.682;9.022;2023-06-22T10:09:26;14.88;;;7.18;;
42802;SDS011;28447;48.682;9.022;2023-06-22T10:11:52;8.35;;;7.18;;
42802;SDS011;28447;48.682;9.022;2023-06-22T10:14:17;9.27;;;7.20;;
42802;SDS011;28447;48.682;9.022;2023-06-22T10:16:43;10.38;;;7.20;;
42802;SDS011;28447;48.682;9.022;2023-06-22T10:19:09;14.60;;;6.70;;
42802;SDS011;28447;48.682;9.022;2023-06-22T10:21:34;9.50;;;7.13;;
42802;SDS011;28447;48.682;9.022;2023-06-22T10:24:00;13.15;;;7.22;;
42802;SDS011;28447;48.682;9.022;2023-06-22T10:26:34;12.30;;;7.05;;
42802;SDS011;28447;48.682;9.022;2023-06-22T10:29:01;15.77;;;7.20;;
42802;SDS011;28447;48.682;9.022;2023-06-22T10:31:27;14.40;;;7.38;;
42802;SDS011;28447;48.682;9.022;2023-06-22T10:33:53;9.20;;;7.65;;
42802;SDS011;28447;48.682;9.022;2023-06-22T10:36:19;18.75;;;6.65;;
42802;SDS011;28447;48.682;9.022;2023-06-22T10:38:46;11.25;;;6.80;;
42802;SDS011;28447;48.682;9.022;2023-06-22T10:41:12;10.63;;;6.75;;
42802;SDS011;28447;48.682;9.022;2023-06-22T10:43:38;9.98;;;6.47;;
42802;SDS011;28447;48.682;9.022;2023-06-22T10:46:04;9.05;;;6.60;;
42802;SDS011;28447;48.682;9.022;2023-06-22T10:48:29;11.70;;;7.35;;
42802;SDS011;28447;48.682;9.022;2023-06-22T10:50:55;8.05;;;6.72;;
42802;SDS011;28447;48.682;9.022;2023-06-22T10:53:21;9.15;;;6.95;;
42802;SDS011;28447;48.682;9.022;2023-06-22T10:55:47;11.45;;;6.95;;
42802;SDS011;28447;48.682;9.022;2023-06-22T10:58:12;8.95;;;6.82;;
42802;SDS011;28447;48.682;9.022;2023-06-22T11:00:38;13.60;;;7.95;;
42802;SDS011;28447;48.682;9.022;2023-06-22T11:03:04;13.05;;;8.00;;
42802;SDS011;28447;48.682;9.022;2023-06-22T11:05:29;9.60;;;6.43;;
42802;SDS011;28447;48.682;9.022;2023-06-22T11:07:55;9.32;;;6.72;;
42802;SDS011;28447;48.682;9.022;2023-06-22T11:10:20;12.43;;;6.97;;
42802;SDS011;28447;48.682;9.022;2023-06-22T11:12:46;10.02;;;7.03;;
42802;SDS011;28447;48.682;9.022;2023-06-22T11:15:12;13.57;;;7.30;;
42802;SDS011;28447;48.682;9.022;2023-06-22T11:17:38;12.27;;;7.18;;
42802;SDS011;28447;48.682;9.022;2023-06-22T11:20:04;8.23;;;6.50;;
42802;SDS011;28447;48.682;9.022;2023-06-22T11:22:35;8.60;;;7.43;;
42802;SDS011;28447;48.682;9.022;2023-06-22T11:25:04;12.43;;;7.45;;
42802;SDS011;28447;48.682;9.022;2023-06-22T11:27:30;11.30;;;7.00;;
42802;SDS011;28447;48.682;9.022;2023-06-22T11:29:56;10.05;;;6.60;;
42802;SDS011;28447;48.682;9.022;2023-06-22T11:32:22;9.27;;;7.13;;
42802;SDS011;28447;48.682;9.022;2023-06-22T11:34:48;8.38;;;7.38;;
42802;SDS011;28447;48.682;9.022;2023-06-22T11:37:14;7.65;;;6.82;;
42802;SDS011;28447;48.682;9.022;2023-06-22T11:39:40;9.18;;;7.80;;
42802;SDS011;28447;48.682;9.022;2023-06-22T11:42:06;8.70;;;6.55;;
42802;SDS011;28447;48.682;9.022;2023-06-22T11:44:32;10.90;;;7.60;;
42802;SDS011;28447;48.682;9.022;2023-06-22T11:46:57;10.18;;;7.78;;
42802;SDS011;28447;48.682;9.022;2023-06-22T11:49:25;11.38;;;7.53;;
42802;SDS011;28447;48.682;9.022;2023-06-22T11:51:55;10.00;;;7.38;;
42802;SDS011;28447;48.682;9.022;2023-06-22T11:54:20;19.85;;;7.85;;
42802;SDS011;28447;48.682;9.022;2023-06-22T11:56:46;10.35;;;7.55;;
42802;SDS011;28447;48.682;9.022;2023-06-22T11:59:12;10.98;;;7.53;;
42802;SDS011;28447;48.682;9.022;2023-06-22T12:01:38;13.20;;;7.70;;
42802;SDS011;28447;48.682;9.022;2023-06-22T12:04:04;8.90;;;7.35;;
42802;SDS011;28447;48.682;9.022;2023-06-22T12:06:35;13.23;;;8.18;;
42802;SDS011;28447;48.682;9.022;2023-06-22T12:09:03;7.85;;;7.05;;
42802;SDS011;28447;48.682;9.022;2023-06-22T12:11:32;9.75;;;7.60;;
42802;SDS011;28447;48.682;9.022;2023-06-22T12:13:57;10.73;;;7.65;;
42802;SDS011;28447;48.682;9.022;2023-06-22T12:16:26;14.55;;;8.23;;
42802;SDS011;28447;48.682;9.022;2023-06-22T12:18:55;9.45;;;7.88;;
42802;SDS011;28447;48.682;9.022;2023-06-22T12:21:21;13.98;;;7.90;;
42802;SDS011;28447;48.682;9.022;2023-06-22T12:23:46;11.85;;;8.18;;
42802;SDS011;28447;48.682;9.022;2023-06-22T12:26:12;10.05;;;7.95;;
42802;SDS011;28447;48.682;9.022;2023-06-22T12:28:38;9.55;;;7.32;;
42802;SDS011;28447;48.682;9.022;2023-06-22T12:31:03;12.48;;;7.45;;
42802;SDS011;28447;48.682;9.022;2023-06-22T12:33:29;11.25;;;7.93;;
42802;SDS011;28447;48.682;9.022;2023-06-22T12:35:55;13.63;;;8.10;;
42802;SDS011;28447;48.682;9.022;2023-06-22T12:38:21;10.45;;;7.88;;
42802;SDS011;28447;48.682;9.022;2023-06-22T12:40:47;9.57;;;7.20;;
42802;SDS011;28447;48.682;9.022;2023-06-22T12:43:14;10.55;;;8.13;;
42802;SDS011;28447;48.682;9.022;2023-06-22T12:45:40;13.15;;;8.40;;
42802;SDS011;28447;48.682;9.022;2023-06-22T12:48:05;18.42;;;7.70;;
42802;SDS011;28447;48.682;9.022;2023-06-22T12:50:31;9.32;;;8.30;;
42802;SDS011;28447;48.682;9.022;2023-06-22T12:52:57;13.10;;;7.90;;
42802;SDS011;28447;48.682;9.022;2023-06-22T12:55:23;13.02;;;8.02;;
42802;SDS011;28447;48.682;9.022;2023-06-22T12:57:48;9.88;;;7.70;;
42802;SDS011;28447;48.682;9.022;2023-06-22T13:00:14;10.27;;;7.43;;
42802;SDS011;28447;48.682;9.022;2023-06-22T13:02:40;10.82;;;8.13;;
42802;SDS011;28447;48.682;9.022;2023-06-22T13:05:06;13.77;;;7.68;;
42802;SDS011;28447;48.682;9.022;2023-06-22T13:07:32;12.35;;;7.80;;
42802;SDS011;28447;48.682;9.022;2023-06-22T13:09:58;10.98;;;7.03;;
42802;SDS011;28447;48.682;9.022;2023-06-22T13:12:23;12.93;;;8.45;;
42802;SDS011;28447;48.682;9.022;2023-06-22T13:14:49;10.00;;;8.10;;
42802;SDS011;28447;48.682;9.022;2023-06-22T13:17:15;14.23;;;8.32;;
42802;SDS011;28447;48.682;9.022;2023-06-22T13:19:41;11.60;;;7.82;;
42802;SDS011;28447;48.682;9.022;2023-06-22T13:24:52;10.13;;;8.27;;
42802;SDS011;28447;48.682;9.022;2023-06-22T13:27:18;9.75;;;7.82;;
42802;SDS011;28447;48.682;9.022;2023-06-22T13:29:44;17.95;;;7.90;;
42802;SDS011;28447;48.682;9.022;2023-06-22T13:32:09;10.73;;;7.90;;
42802;SDS011;28447;48.682;9.022;2023-06-22T13:34:35;12.85;;;7.85;;
42802;SDS011;28447;48.682;9.022;2023-06-22T13:37:00;10.48;;;7.25;;
42802;SDS011;28447;48.682;9.022;2023-06-22T13:39:26;12.10;;;7.47;;
42802;SDS011;28447;48.682;9.022;2023-06-22T13:41:52;13.13;;;7.03;;
42802;SDS011;28447;48.682;9.022;2023-06-22T13:44:17;11.18;;;7.55;;
42802;SDS011;28447;48.682;9.022;2023-06-22T13:46:43;12.75;;;8.45;;
42802;SDS011;28447;48.682;9.022;2023-06-22T13:49:08;9.75;;;8.00;;
42802;SDS011;28447;48.682;9.022;2023-06-22T13:51:34;12.35;;;7.72;;
42802;SDS011;28447;48.682;9.022;2023-06-22T13:54:01;13.45;;;7.60;;
42802;SDS011;28447;48.682;9.022;2023-06-22T13:56:26;12.77;;;7.43;;
42802;SDS011;28447;48.682;9.022;2023-06-22T13:58:52;15.43;;;8.18;;
42802;SDS011;28447;48.682;9.022;2023-06-22T14:01:18;12.75;;;7.45;;
42802;SDS011;28447;48.682;9.022;2023-06-22T14:03:43;11.30;;;7.32;;
42802;SDS011;28447;48.682;9.022;2023-06-22T14:06:11;12.20;;;7.35;;
42802;SDS011;28447;48.682;9.022;2023-06-22T14:08:37;11.30;;;7.30;;
42802;SDS011;28447;48.682;9.022;2023-06-22T14:11:03;9.40;;;6.60;;
42802;SDS011;28447;48.682;9.022;2023-06-22T14:13:29;15.10;;;6.97;;
42802;SDS011;28447;48.682;9.022;2023-06-22T14:15:54;10.43;;;6.82;;
42802;SDS011;28447;48.682;9.022;2023-06-22T14:18:20;16.55;;;7.20;;
42802;SDS011;28447;48.682;9.022;2023-06-22T14:20:47;12.45;;;6.18;;
42802;SDS011;28447;48.682;9.022;2023-06-22T14:23:13;7.63;;;5.63;;
42802;SDS011;28447;48.682;9.022;2023-06-22T14:25:39;10.15;;;5.05;;
42802;SDS011;28447;48.682;9.022;2023-06-22T14:28:05;10.43;;;5.82;;
42802;SDS011;28447;48.682;9.022;2023-06-22T14:30:31;16.10;;;5.50;;
42802;SDS011;28447;48.682;9.022;2023-06-22T14:32:57;10.27;;;4.75;;
42802;SDS011;28447;48.682;9.022;2023-06-22T14:35:23;11.68;;;5.65;;
42802;SDS011;28447;48.682;9.022;2023-06-22T14:37:49;14.15;;;5.65;;
42802;SDS011;28447;48.682;9.022;2023-06-22T14:40:15;8.48;;;5.20;;
42802;SDS011;28447;48.682;9.022;2023-06-22T14:42:41;8.35;;;4.55;;
42802;SDS011;28447;48.682;9.022;2023-06-22T14:45:07;16.20;;;4.60;;
42802;SDS011;28447;48.682;9.022;2023-06-22T14:47:32;13.95;;;5.28;;
42802;SDS011;28447;48.682;9.022;2023-06-22T14:49:58;9.52;;;4.07;;
42802;SDS011;28447;48.682;9.022;2023-06-22T14:52:25;10.20;;;4.63;;
42802;SDS011;28447;48.682;9.022;2023-06-22T14:54:52;8.45;;;4.55;;
42802;SDS011;28447;48.682;9.022;2023-06-22T14:57:18;12.00;;;4.20;;
42802;SDS011;28447;48.682;9.022;2023-06-22T14:59:45;8.95;;;4.72;;
42802;SDS011;28447;48.682;9.022;2023-06-22T15:02:12;9.43;;;5.07;;
42802;SDS011;28447;48.682;9.022;2023-06-22T15:04:38;11.10;;;5.60;;
42802;SDS011;28447;48.682;9.022;2023-06-22T15:07:04;17.33;;;4.82;;
42802;SDS011;28447;48.682;9.022;2023-06-22T15:09:30;11.35;;;4.80;;
42802;SDS011;28447;48.682;9.022;2023-06-22T15:11:56;11.70;;;4.75;;
42802;SDS011;28447;48.682;9.022;2023-06-22T15:14:22;9.02;;;4.57;;
42802;SDS011;28447;48.682;9.022;2023-06-22T15:16:49;11.70;;;4.72;;
42802;SDS011;28447;48.682;9.022;2023-06-22T15:19:15;9.60;;;4.60;;
42802;SDS011;28447;48.682;9.022;2023-06-22T15:21:40;14.63;;;5.05;;
42802;SDS011;28447;48.682;9.022;2023-06-22T15:24:06;7.78;;;4.40;;
42802;SDS011;28447;48.682;9.022;2023-06-22T15:26:32;7.45;;;4.57;;
42802;SDS011;28447;48.682;9.022;2023-06-22T15:28:57;8.50;;;3.83;;
42802;SDS011;28447;48.682;9.022;2023-06-22T15:31:23;10.68;;;4.55;;
42802;SDS011;28447;48.682;9.022;2023-06-22T15:33:48;10.52;;;5.28;;
42802;SDS011;28447;48.682;9.022;2023-06-22T15:36:14;8.88;;;4.75;;
42802;SDS011;28447;48.682;9.022;2023-06-22T15:38:39;9.60;;;5.22;;
42802;SDS011;28447;48.682;9.022;2023-06-22T15:41:05;7.80;;;4.88;;
42802;SDS011;28447;48.682;9.022;2023-06-22T15:43:31;12.93;;;4.43;;
42802;SDS011;28447;48.682;9.022;2023-06-22T15:45:57;10.07;;;4.93;;
42802;SDS011;28447;48.682;9.022;2023-06-22T15:48:22;16.25;;;5.13;;
42802;SDS011;28447;48.682;9.022;2023-06-22T15:50:48;12.38;;;4.68;;
42802;SDS011;28447;48.682;9.022;2023-06-22T15:53:14;13.00;;;4.97;;
42802;SDS011;28447;48.682;9.022;2023-06-22T15:55:39;13.90;;;5.32;;
42802;SDS011;28447;48.682;9.022;2023-06-22T15:58:06;14.48;;;5.82;;
42802;SDS011;28447;48.682;9.022;2023-06-22T16:00:34;10.15;;;5.13;;
42802;SDS011;28447;48.682;9.022;2023-06-22T16:02:59;8.18;;;4.50;;
42802;SDS011;28447;48.682;9.022;2023-06-22T16:05:25;10.48;;;4.88;;
42802;SDS011;28447;48.682;9.022;2023-06-22T16:07:50;13.55;;;5.35;;
42802;SDS011;28447;48.682;9.022;2023-06-22T16:10:17;10.00;;;5.00;;
42802;SDS011;28447;48.682;9.022;2023-06-22T16:12:44;9.73;;;4.75;;
42802;SDS011;28447;48.682;9.022;2023-06-22T16:15:10;9.95;;;4.75;;
42802;SDS011;28447;48.682;9.022;2023-06-22T16:17:36;8.55;;;4.90;;
42802;SDS011;28447;48.682;9.022;2023-06-22T16:20:06;8.02;;;4.93;;
42802;SDS011;28447;48.682;9.022;2023-06-22T16:22:32;9.95;;;4.82;;
42802;SDS011;28447;48.682;9.022;2023-06-22T16:24:59;8.30;;;5.40;;
42802;SDS011;28447;48.682;9.022;2023-06-22T16:27:24;22.30;;;5.38;;
42802;SDS011;28447;48.682;9.022;2023-06-22T16:29:53;7.18;;;4.63;;
42802;SDS011;28447;48.682;9.022;2023-06-22T16:32:18;11.35;;;4.88;;
42802;SDS011;28447;48.682;9.022;2023-06-22T16:34:44;7.30;;;5.30;;
42802;SDS011;28447;48.682;9.022;2023-06-22T16:37:12;11.05;;;4.85;;
42802;SDS011;28447;48.682;9.022;2023-06-22T16:39:38;11.60;;;5.32;;
42802;SDS011;28447;48.682;9.022;2023-06-22T16:42:04;12.05;;;5.05;;
42802;SDS011;28447;48.682;9.022;2023-06-22T16:44:30;12.57;;;5.18;;
42802;SDS011;28447;48.682;9.022;2023-06-22T16:46:59;9.77;;;5.20;;
42802;SDS011;28447;48.682;9.022;2023-06-22T16:49:26;13.82;;;4.75;;
42802;SDS011;28447;48.682;9.022;2023-06-22T16:51:51;16.58;;;5.20;;
42802;SDS011;28447;48.682;9.022;2023-06-22T16:54:17;7.32;;;4.50;;
42802;SDS011;28447;48.682;9.022;2023-06-22T16:56:43;13.13;;;5.28;;
42802;SDS011;28447;48.682;9.022;2023-06-22T16:59:10;11.73;;;5.45;;
42802;SDS011;28447;48.682;9.022;2023-06-22T17:01:36;9.57;;;4.78;;
42802;SDS011;28447;48.682;9.022;2023-06-22T17:04:14;14.35;;;5.10;;
42802;SDS011;28447;48.682;9.022;2023-06-22T17:06:43;19.98;;;4.55;;
42802;SDS011;28447;48.682;9.022;2023-06-22T17:09:13;11.07;;;4.88;;
42802;SDS011;28447;48.682;9.022;2023-06-22T17:11:40;8.02;;;4.43;;
42802;SDS011;28447;48.682;9.022;2023-06-22T17:14:06;7.43;;;4.32;;
42802;SDS011;28447;48.682;9.022;2023-06-22T17:16:31;7.20;;;3.80;;
42802;SDS011;28447;48.682;9.022;2023-06-22T17:19:00;7.05;;;4.38;;
42802;SDS011;28447;48.682;9.022;2023-06-22T17:21:30;8.55;;;4.32;;
42802;SDS011;28447;48.682;9.022;2023-06-22T17:23:58;6.78;;;4.22;;
42802;SDS011;28447;48.682;9.022;2023-06-22T17:26:26;6.20;;;3.65;;
42802;SDS011;28447;48.682;9.022;2023-06-22T17:28:53;7.85;;;4.00;;
42802;SDS011;28447;48.682;9.022;2023-06-22T17:31:35;8.68;;;4.50;;
42802;SDS011;28447;48.682;9.022;2023-06-22T17:34:12;6.72;;;3.88;;
42802;SDS011;28447;48.682;9.022;2023-06-22T17:36:50;5.13;;;3.08;;
42802;SDS011;28447;48.682;9.022;2023-06-22T17:39:19;8.70;;;3.72;;
42802;SDS011;28447;48.682;9.022;2023-06-22T17:41:46;6.13;;;3.70;;
42802;SDS011;28447;48.682;9.022;2023-06-22T17:44:13;9.30;;;3.30;;
42802;SDS011;28447;48.682;9.022;2023-06-22T17:46:53;7.63;;;4.07;;
42802;SDS011;28447;48.682;9.022;2023-06-22T17:49:20;9.70;;;3.40;;
42802;SDS011;28447;48.682;9.022;2023-06-22T17:51:50;7.47;;;4.18;;
42802;SDS011;28447;48.682;9.022;2023-06-22T17:54:17;10.40;;;3.50;;
42802;SDS011;28447;48.682;9.022;2023-06-22T17:56:47;5.90;;;3.80;;
42802;SDS011;28447;48.682;9.022;2023-06-22T17:59:19;6.07;;;3.30;;
42802;SDS011;28447;48.682;9.022;2023-06-22T18:01:45;10.07;;;3.60;;
42802;SDS011;28447;48.682;9.022;2023-06-22T18:04:16;7.87;;;3.60;;
42802;SDS011;28447;48.682;9.022;2023-06-22T18:06:44;13.77;;;3.60;;
42802;SDS011;28447;48.682;9.022;2023-06-22T18:09:12;7.10;;;3.10;;
42802;SDS011;28447;48.682;9.022;2023-06-22T18:11:45;7.57;;;3.87;;
42802;SDS011;28447;48.682;9.022;2023-06-22T18:14:13;11.53;;;2.93;;
42802;SDS011;28447;48.682;9.022;2023-06-22T18:16:43;5.83;;;3.50;;
42802;SDS011;28447;48.682;9.022;2023-06-22T18:19:10;6.83;;;3.63;;
42802;SDS011;28447;48.682;9.022;2023-06-22T18:21:39;10.20;;;3.70;;
42802;SDS011;28447;48.682;9.022;2023-06-22T18:24:05;7.60;;;3.60;;
42802;SDS011;28447;48.682;9.022;2023-06-22T18:26:31;9.50;;;3.70;;
42802;SDS011;28447;48.682;9.022;2023-06-22T18:28:58;13.20;;;3.10;;
42802;SDS011;28447;48.682;9.022;2023-06-22T18:31:24;4.30;;;2.93;;
42802;SDS011;28447;48.682;9.022;2023-06-22T18:33:53;5.97;;;2.87;;
42802;SDS011;28447;48.682;9.022;2023-06-22T18:36:25;4.87;;;3.23;;
42802;SDS011;28447;48.682;9.022;2023-06-22T18:38:53;5.20;;;3.30;;